Flight Number: EUR3022 Duration: 11:00
Departure: Moscow Sheremetyevo (UUEE) at 08:00 Distance: 4386 Nm
Arrival: Indianapolis Intl Airport (KIND) at 19:00 Equipment: B777

Weather Information
Moscow / Sheremet'Ye , Russia (UUEE) 55-59N 037-30E May 20, 2018 - 09:30 AM EDT / 2018.05.20 1330 UTC
Wind: from the NNE (020 degrees) at 9 MPH (8 KT):0
Visibility: greater than 7 mile(s):0
Sky conditions: mostly cloudy Temperature: 53 F (12 C) Dew Point: 44 F (7 C) Relative Humidity: 71% Pressure (altimeter): 30.12 in. Hg (1020 hPa)
ob: UUEE 201330Z 02004MPS 9999 BKN028 12/07 Q1020 R06C/150055 R06R/150055 NOSIG cycle: 13
Sunrise: 01:13 Sunset: 17:40 (UTC)

INDIANAPOLIS INTERNATIONAL AIRPORT , IN, United States (KIND) 39-43N 86-17W 242M May 20, 2018 - 08:54 AM EDT / 2018.05.20 1254 UTC
Wind: from the ENE (070 degrees) at 6 MPH (5 KT):0
Visibility: 5 mile(s):0
Sky conditions: mostly cloudy Weather: haze Temperature: 68.0 F (20.0 C) Dew Point: 62.1 F (16.7 C) Relative Humidity: 81% Pressure (altimeter): 30.08 in. Hg (1018 hPa)
ob: KIND 201254Z 07005KT 5SM HZ FEW015 SCT110 BKN250 20/17 A3008 RMK AO2 SLP181 T02000167 cycle: 13
Sunrise: 10:29 Sunset: 00:54 (UTC)

TAF:2018/05/20 12:24 TAF KIND 201123Z 2012/2118 VRB04KT 5SM BR SCT080 FM201300 VRB04KT P6SM SCT080 BKN200 FM201700 VRB04KT P6SM VCSH SCT040 BKN100 FM202100 29005KT P6SM SCT040 BKN090 PROB30 2021/2102 4SM -TSRA BKN045CB

This route has never been flown.

Route map